createdAt,value
2017-12-14T00:02:25.951Z,92.30
2017-12-14T00:04:53.498Z,92.40
2017-12-14T00:07:21.014Z,92.50
2017-12-14T00:09:49.322Z,92.60
2017-12-14T00:12:16.798Z,92.60
2017-12-14T00:14:44.278Z,92.60
2017-12-14T00:17:11.790Z,92.20
2017-12-14T00:19:40.054Z,92.20
2017-12-14T00:22:08.317Z,92.20
2017-12-14T00:24:35.345Z,92.10
2017-12-14T00:27:02.825Z,91.90
2017-12-14T00:29:30.334Z,91.30
2017-12-14T00:31:57.814Z,91.80
2017-12-14T00:34:25.306Z,91.10
2017-12-14T00:36:53.589Z,91.10
2017-12-14T00:39:21.837Z,90.80
2017-12-14T00:41:49.330Z,90.80
2017-12-14T00:44:17.584Z,91.10
2017-12-14T00:46:45.093Z,91.10
2017-12-14T00:49:12.622Z,91.00
2017-12-14T00:51:40.871Z,91.10
2017-12-14T00:54:08.366Z,91.10
2017-12-14T00:56:35.851Z,91.10
2017-12-14T00:59:04.382Z,91.20
2017-12-14T01:01:31.862Z,91.40
2017-12-14T01:03:59.401Z,91.40
2017-12-14T01:06:28.664Z,92.00
2017-12-14T01:08:56.177Z,91.70
2017-12-14T01:11:24.441Z,92.00
2017-12-14T01:13:52.693Z,92.30
2017-12-14T01:16:20.190Z,92.20
2017-12-14T01:18:48.444Z,92.30
2017-12-14T01:21:16.742Z,92.60
2017-12-14T01:23:44.994Z,92.60
2017-12-14T01:26:13.257Z,92.80
2017-12-14T01:29:51.390Z,92.30
2017-12-14T01:32:18.890Z,92.20
2017-12-14T01:34:46.381Z,92.40
2017-12-14T01:37:13.862Z,92.10
2017-12-14T01:39:41.381Z,92.00
2017-12-14T01:42:08.902Z,92.10
2017-12-14T01:44:37.166Z,92.80
2017-12-14T01:47:05.415Z,92.70
2017-12-14T01:49:32.917Z,92.90
2017-12-14T01:52:01.194Z,93.00
2017-12-14T01:54:29.485Z,92.80
2017-12-14T01:56:56.995Z,92.80
2017-12-14T01:59:24.479Z,93.10
2017-12-14T02:01:52.752Z,93.20
2017-12-14T02:04:21.002Z,93.40
2017-12-14T02:06:48.505Z,93.40
2017-12-14T02:09:16.765Z,92.90
2017-12-14T02:11:45.030Z,92.80
2017-12-14T02:14:13.287Z,92.70
2017-12-14T02:16:40.791Z,92.70
2017-12-14T02:19:08.297Z,92.30
2017-12-14T02:21:35.781Z,92.40
2017-12-14T02:24:03.283Z,92.50
2017-12-14T02:26:30.774Z,92.70
2017-12-14T02:28:58.273Z,92.40
2017-12-14T02:31:26.522Z,92.50
2017-12-14T02:33:54.028Z,92.40
2017-12-14T02:36:21.516Z,91.90
2017-12-14T02:38:49.018Z,91.90
2017-12-14T02:41:17.266Z,92.00
2017-12-14T02:43:44.747Z,92.00
2017-12-14T02:46:13.013Z,92.50
2017-12-14T02:48:40.500Z,92.60
2017-12-14T02:51:08.766Z,95.10
2017-12-14T02:53:37.016Z,94.70
2017-12-14T02:56:06.042Z,96.00
2017-12-14T02:58:34.294Z,96.20
2017-12-14T03:01:01.810Z,96.10
2017-12-14T03:03:29.298Z,96.50
2017-12-14T03:05:56.777Z,97.20
2017-12-14T03:08:24.272Z,97.10
2017-12-14T03:10:51.771Z,97.00
2017-12-14T03:13:19.275Z,96.60
2017-12-14T03:15:47.526Z,97.80
2017-12-14T03:18:15.028Z,97.80
2017-12-14T03:20:42.538Z,97.60
2017-12-14T03:23:10.047Z,97.70
2017-12-14T03:25:37.540Z,97.90
2017-12-14T03:28:05.022Z,97.80
2017-12-14T03:30:33.332Z,97.90
2017-12-14T03:33:00.831Z,97.80
2017-12-14T03:35:28.330Z,98.80
2017-12-14T03:37:56.582Z,98.20
2017-12-14T03:40:24.078Z,98.20
2017-12-14T03:42:51.583Z,98.70
2017-12-14T03:45:19.086Z,98.60
2017-12-14T03:47:47.345Z,98.10
2017-12-14T03:50:15.601Z,98.00
2017-12-14T03:52:43.097Z,98.00
2017-12-14T03:55:11.344Z,98.00
2017-12-14T03:57:38.852Z,98.00
2017-12-14T04:00:06.346Z,97.80
2017-12-14T04:02:33.866Z,97.40
2017-12-14T04:05:01.354Z,96.60
2017-12-14T04:07:28.882Z,96.70
2017-12-14T04:09:56.378Z,96.00
2017-12-14T04:12:23.938Z,96.00
2017-12-14T04:14:51.404Z,95.50
2017-12-14T04:17:18.895Z,94.90
2017-12-14T04:19:47.166Z,95.10
2017-12-14T04:22:15.419Z,95.20
2017-12-14T04:24:42.938Z,95.10
2017-12-14T04:27:10.435Z,95.20
2017-12-14T04:29:37.966Z,95.00
2017-12-14T04:32:05.454Z,95.20
2017-12-14T04:34:32.962Z,95.20
2017-12-14T04:37:00.534Z,94.80
2017-12-14T04:39:28.034Z,94.70
2017-12-14T04:41:55.514Z,94.70
2017-12-14T04:44:23.786Z,95.00
2017-12-14T04:46:53.058Z,95.20
2017-12-14T04:49:20.566Z,95.10
2017-12-14T04:51:48.828Z,96.30
2017-12-14T04:54:17.081Z,96.60
2017-12-14T04:56:44.586Z,96.60
2017-12-14T04:59:12.138Z,97.00
2017-12-14T05:01:40.410Z,98.00
2017-12-14T05:04:08.662Z,98.10
2017-12-14T05:06:36.146Z,98.10
2017-12-14T05:09:04.410Z,98.20
2017-12-14T05:11:32.655Z,97.60
2017-12-14T05:14:00.157Z,97.60
2017-12-14T05:16:28.401Z,98.00
2017-12-14T05:18:55.913Z,97.90
2017-12-14T05:21:23.458Z,98.00
2017-12-14T05:23:51.006Z,98.10
2017-12-14T05:26:18.522Z,98.30
2017-12-14T05:28:46.014Z,98.20
2017-12-14T05:31:14.288Z,97.80
2017-12-14T05:33:43.557Z,97.80
2017-12-14T05:36:11.058Z,97.60
2017-12-14T05:38:39.342Z,97.90
2017-12-14T05:41:07.629Z,98.20
2017-12-14T05:43:35.125Z,98.20
2017-12-14T05:46:02.635Z,98.30
2017-12-14T05:48:30.906Z,98.50
2017-12-14T05:51:01.219Z,98.80
2017-12-14T05:53:29.498Z,99.00
2017-12-14T05:55:57.746Z,98.60
2017-12-14T05:58:25.250Z,98.60
2017-12-14T06:00:53.526Z,99.00
2017-12-14T06:03:21.806Z,99.00
2017-12-14T06:05:50.069Z,98.90
2017-12-14T06:08:18.353Z,98.90
2017-12-14T06:10:46.610Z,98.80
2017-12-14T06:13:14.114Z,98.70
2017-12-14T06:15:41.617Z,98.50
2017-12-14T06:18:09.142Z,98.10
2017-12-14T06:20:36.626Z,97.50
2017-12-14T06:23:04.109Z,97.30
2017-12-14T06:25:32.374Z,96.40
2017-12-14T06:27:59.863Z,96.30
2017-12-14T06:30:28.160Z,94.70
2017-12-14T06:32:55.708Z,94.70
2017-12-14T06:35:23.218Z,94.70
2017-12-14T06:37:50.706Z,94.40
2017-12-14T06:40:18.974Z,93.70
2017-12-14T06:42:47.276Z,93.80
2017-12-14T06:45:14.761Z,93.80
2017-12-14T06:47:42.266Z,93.20
2017-12-14T06:50:10.527Z,92.80
2017-12-14T06:52:38.025Z,92.70
2017-12-14T06:55:06.283Z,92.50
2017-12-14T06:57:34.569Z,92.30
2017-12-14T07:00:02.834Z,92.40
2017-12-14T07:02:31.149Z,92.40
2017-12-14T07:04:58.669Z,92.40
2017-12-14T07:07:26.158Z,92.60
2017-12-14T07:09:53.674Z,92.60
2017-12-14T07:12:21.935Z,92.50
2017-12-14T07:14:49.457Z,92.50
2017-12-14T07:17:17.011Z,92.70
2017-12-14T07:19:44.495Z,92.20
2017-12-14T07:22:12.041Z,92.40
2017-12-14T07:24:39.519Z,92.10
2017-12-14T07:27:07.022Z,92.10
2017-12-14T07:29:35.322Z,91.90
2017-12-14T07:32:02.822Z,92.00
2017-12-14T07:34:30.330Z,91.60
2017-12-14T07:36:58.586Z,91.80
2017-12-14T07:39:26.886Z,92.10
2017-12-14T07:41:54.374Z,91.90
2017-12-14T07:44:27.695Z,91.30
2017-12-14T07:47:07.201Z,91.10
2017-12-14T07:49:34.707Z,91.00
2017-12-14T07:52:02.199Z,90.70
2017-12-14T07:54:29.764Z,90.50
2017-12-14T07:56:57.258Z,90.60
2017-12-14T07:59:24.744Z,90.40
2017-12-14T08:01:52.255Z,90.20
2017-12-14T08:04:19.745Z,90.50
2017-12-14T08:06:47.252Z,90.00
2017-12-14T08:09:14.743Z,90.30
2017-12-14T08:11:42.251Z,90.50
2017-12-14T08:14:09.739Z,90.50
2017-12-14T08:16:37.234Z,91.00
2017-12-14T08:19:04.757Z,91.00
2017-12-14T08:21:32.242Z,91.10
2017-12-14T08:23:59.750Z,90.90
2017-12-14T08:26:28.007Z,91.40
2017-12-14T08:28:56.324Z,91.70
2017-12-14T08:31:23.991Z,91.70
2017-12-14T08:33:51.490Z,92.00
2017-12-14T08:36:18.998Z,92.20
2017-12-14T08:38:46.494Z,91.80
2017-12-14T08:41:14.306Z,91.90
2017-12-14T08:43:42.688Z,92.30
2017-12-14T08:46:10.962Z,92.30
2017-12-14T08:48:39.215Z,92.40
2017-12-14T08:51:06.729Z,92.40
2017-12-14T08:53:34.219Z,92.30
2017-12-14T08:56:01.710Z,92.30
2017-12-14T08:58:29.979Z,92.30
2017-12-14T09:00:57.483Z,92.30
2017-12-14T09:03:24.993Z,92.30
2017-12-14T09:05:52.573Z,92.30
2017-12-14T09:08:20.841Z,92.40
2017-12-14T09:10:49.098Z,92.50
2017-12-14T09:13:16.607Z,92.50
2017-12-14T09:15:44.144Z,92.60
2017-12-14T09:18:11.654Z,92.60
2017-12-14T09:20:39.158Z,92.40
2017-12-14T09:23:07.658Z,92.20
2017-12-14T09:25:36.072Z,92.10
2017-12-14T09:28:03.610Z,92.10
2017-12-14T09:30:31.122Z,92.10
2017-12-14T09:32:58.602Z,92.10
2017-12-14T09:35:26.879Z,91.90
2017-12-14T09:37:55.205Z,91.50
2017-12-14T09:40:22.659Z,91.40
2017-12-14T09:42:50.158Z,91.30
2017-12-14T09:45:18.415Z,91.00
2017-12-14T09:47:45.911Z,91.00
2017-12-14T09:50:14.171Z,91.10
2017-12-14T14:13:23.538Z,91.40
2017-12-14T14:15:51.041Z,91.70
2017-12-14T14:18:18.548Z,91.60
2017-12-14T14:20:46.082Z,91.40
2017-12-14T14:23:14.329Z,91.30
2017-12-14T14:25:41.838Z,91.30
2017-12-14T14:28:09.346Z,91.20
2017-12-14T14:30:37.189Z,91.30
2017-12-14T14:33:04.694Z,91.40
2017-12-14T14:35:32.194Z,91.30
2017-12-14T14:37:59.690Z,91.30
2017-12-14T14:40:27.175Z,91.60
2017-12-14T14:42:55.457Z,91.60
2017-12-14T14:45:23.706Z,91.60
2017-12-14T14:47:51.324Z,91.60
2017-12-14T14:50:18.814Z,91.50
2017-12-14T14:52:46.310Z,91.30
2017-12-14T14:55:14.577Z,91.70
2017-12-14T14:57:42.837Z,91.80
2017-12-14T15:00:10.332Z,91.50
2017-12-14T15:02:38.601Z,91.50
2017-12-14T15:05:06.858Z,91.40
2017-12-14T15:07:34.362Z,91.30
2017-12-14T15:10:01.892Z,91.20
2017-12-14T15:12:30.146Z,91.30
2017-12-14T15:14:57.659Z,91.20
2017-12-14T15:17:25.419Z,91.40
2017-12-14T15:19:52.918Z,91.20
2017-12-14T15:22:20.485Z,91.40
2017-12-14T15:24:47.974Z,91.10
2017-12-14T15:27:16.250Z,91.10
2017-12-14T15:29:44.499Z,91.20
2017-12-14T15:32:12.098Z,91.20
2017-12-14T15:34:40.379Z,91.30
2017-12-14T15:37:07.950Z,91.30
2017-12-14T15:39:37.727Z,91.30
2017-12-14T15:42:05.395Z,91.50
2017-12-14T15:44:33.883Z,91.60
2017-12-14T15:47:02.242Z,91.30
2017-12-14T15:49:30.384Z,91.30
2017-12-14T15:51:57.966Z,91.10
2017-12-14T15:54:25.723Z,91.00
2017-12-14T15:56:53.469Z,91.00
2017-12-14T15:59:22.070Z,91.40
2017-12-14T16:01:49.617Z,91.20
2017-12-14T16:04:17.286Z,91.40
2017-12-14T16:06:44.833Z,91.10
2017-12-14T16:09:12.352Z,91.30
2017-12-14T16:11:40.618Z,91.40
2017-12-14T16:14:08.880Z,91.70
2017-12-14T16:16:36.424Z,91.60
2017-12-14T16:19:03.942Z,91.60
2017-12-14T16:21:31.458Z,91.80
2017-12-14T16:23:58.963Z,91.80
2017-12-14T16:26:26.454Z,91.70
2017-12-14T16:28:53.963Z,91.80
2017-12-14T16:31:21.510Z,91.90
2017-12-14T16:33:49.777Z,91.70
2017-12-14T16:36:17.262Z,91.60
2017-12-14T16:38:45.550Z,91.80
2017-12-14T16:41:13.049Z,91.80
2017-12-14T16:43:40.529Z,92.40
2017-12-14T16:46:08.021Z,92.80
2017-12-14T16:48:35.522Z,92.40
2017-12-14T16:51:03.014Z,93.00
2017-12-14T16:53:31.274Z,92.70
2017-12-14T16:55:58.779Z,92.60
2017-12-14T16:58:26.279Z,93.30
2017-12-14T17:00:53.784Z,93.00
2017-12-14T17:03:21.340Z,92.90
2017-12-14T17:05:48.850Z,93.30
2017-12-14T17:08:17.350Z,93.20
2017-12-14T17:10:44.861Z,93.30
2017-12-14T17:13:12.704Z,93.60
2017-12-14T17:15:40.201Z,93.60
2017-12-14T17:18:07.698Z,93.50
2017-12-14T17:20:35.190Z,93.80
2017-12-14T17:23:02.708Z,94.10
2017-12-14T17:25:30.203Z,94.30
2017-12-14T17:27:58.460Z,94.20
2017-12-14T17:30:26.735Z,94.50
2017-12-14T17:32:54.990Z,94.50
2017-12-14T17:35:22.493Z,94.40
2017-12-14T17:37:50.052Z,94.20
2017-12-14T17:40:18.345Z,94.40
2017-12-14T17:42:45.847Z,94.40
2017-12-14T17:45:13.680Z,93.90
2017-12-14T17:47:41.954Z,94.20
2017-12-14T17:50:09.487Z,94.20
2017-12-14T17:52:37.788Z,94.30
2017-12-14T17:55:05.332Z,94.30
2017-12-14T17:57:32.847Z,94.30
2017-12-14T18:00:00.338Z,94.10
2017-12-14T18:02:28.608Z,94.40
2017-12-14T18:04:56.891Z,94.60
2017-12-14T18:07:25.299Z,94.60
2017-12-14T18:09:52.908Z,94.60
2017-12-14T18:12:20.431Z,94.60
2017-12-14T18:14:47.930Z,94.60
2017-12-14T18:17:15.422Z,94.80
2017-12-14T18:19:42.926Z,94.50
2017-12-14T18:22:10.409Z,94.70
2017-12-14T18:24:37.908Z,94.60
2017-12-14T18:27:05.473Z,95.00
2017-12-14T18:29:32.992Z,94.50
2017-12-14T18:32:02.220Z,94.70
2017-12-14T18:34:29.718Z,94.70
2017-12-14T18:36:57.233Z,94.80
2017-12-14T18:39:24.762Z,94.40
2017-12-14T18:41:53.055Z,94.90
2017-12-14T18:44:21.365Z,94.60
2017-12-14T18:46:48.902Z,94.60
2017-12-14T18:49:16.385Z,94.60
2017-12-14T18:51:43.879Z,94.50
2017-12-14T18:54:11.429Z,94.70
2017-12-14T18:56:38.922Z,94.50
2017-12-14T18:59:07.189Z,94.40
2017-12-14T19:01:35.474Z,94.30
2017-12-14T19:04:03.733Z,94.60
2017-12-14T19:06:31.221Z,94.50
2017-12-14T19:08:59.503Z,94.30
2017-12-14T19:11:27.006Z,94.30
2017-12-14T19:13:54.498Z,94.10
2017-12-14T19:16:22.808Z,94.20
2017-12-14T19:18:50.302Z,94.20
2017-12-14T19:21:17.802Z,94.20
2017-12-14T19:23:46.057Z,94.20
2017-12-14T19:26:13.579Z,94.20
2017-12-14T19:28:41.124Z,94.50
2017-12-14T19:31:08.634Z,94.30
2017-12-14T19:33:36.124Z,94.20
2017-12-14T19:36:04.407Z,94.80
2017-12-14T19:38:31.915Z,94.50
2017-12-14T19:40:59.412Z,94.50
2017-12-14T19:43:27.693Z,94.50
2017-12-14T19:45:55.951Z,94.30
2017-12-14T19:48:24.235Z,94.30
2017-12-14T19:50:52.494Z,94.40
2017-12-14T19:53:20.001Z,94.40
2017-12-14T19:55:47.498Z,94.30
2017-12-14T19:58:15.022Z,94.30
2017-12-14T20:00:42.669Z,94.20
2017-12-14T20:03:10.188Z,94.20
2017-12-14T20:05:37.702Z,93.90
2017-12-14T20:08:05.203Z,93.60
2017-12-14T20:10:32.702Z,93.80
2017-12-14T20:13:00.277Z,93.80
2017-12-14T20:15:27.774Z,93.80
2017-12-14T20:17:55.271Z,93.90
2017-12-14T20:20:23.550Z,94.60
2017-12-14T20:22:51.806Z,94.60
2017-12-14T20:25:19.299Z,94.50
2017-12-14T20:27:46.810Z,94.80
2017-12-14T20:30:14.305Z,94.90
2017-12-14T20:32:42.626Z,95.10
2017-12-14T20:35:10.149Z,95.10
2017-12-14T20:37:37.655Z,95.20
2017-12-14T20:40:05.146Z,95.00
2017-12-14T20:42:33.438Z,94.80
2017-12-14T20:45:00.968Z,94.80
2017-12-14T20:47:28.450Z,95.20
2017-12-14T20:49:56.747Z,95.00
2017-12-14T20:52:24.258Z,94.90
2017-12-14T20:54:53.269Z,95.00
2017-12-14T20:59:57.882Z,94.80
2017-12-14T21:02:25.407Z,94.60
2017-12-14T21:04:52.927Z,94.40
2017-12-14T21:07:21.979Z,93.50
2017-12-14T21:09:49.473Z,93.40
2017-12-14T21:12:16.977Z,93.30
2017-12-14T21:14:44.568Z,93.50
2017-12-14T21:17:12.098Z,93.60
2017-12-14T21:19:39.589Z,93.60
2017-12-14T21:22:07.094Z,93.50
2017-12-14T21:24:34.589Z,93.80
2017-12-14T21:27:02.093Z,93.30
2017-12-14T21:29:30.438Z,92.90
2017-12-14T21:31:57.935Z,92.90
2017-12-14T21:34:26.202Z,93.00
2017-12-14T21:36:53.691Z,93.00
2017-12-14T21:39:21.205Z,93.00
2017-12-14T21:41:48.694Z,93.00
2017-12-14T21:44:16.993Z,93.40
2017-12-14T21:46:44.547Z,93.30
2017-12-14T21:49:12.050Z,93.50
2017-12-14T21:51:39.550Z,93.70
2017-12-14T21:54:07.804Z,95.20
2017-12-14T21:56:36.137Z,95.50
2017-12-14T21:59:03.622Z,95.20
2017-12-14T22:01:31.907Z,95.50
2017-12-14T22:03:59.391Z,95.40
2017-12-14T22:06:27.645Z,95.50
2017-12-14T22:08:55.185Z,95.50
2017-12-14T22:11:22.674Z,95.60
2017-12-14T22:13:50.178Z,95.40
2017-12-14T22:16:17.705Z,95.50
2017-12-14T22:18:45.986Z,95.20
2017-12-14T22:22:35.222Z,95.30
2017-12-14T22:25:02.738Z,95.80
2017-12-14T22:27:30.254Z,95.60
2017-12-14T22:29:59.262Z,95.70
2017-12-14T22:32:27.612Z,95.70
2017-12-14T22:34:55.120Z,95.70
2017-12-14T22:37:22.635Z,95.40
2017-12-14T22:39:50.149Z,95.50
2017-12-14T22:42:17.715Z,95.60
2017-12-14T22:44:45.203Z,95.50
2017-12-14T22:47:12.714Z,95.40
2017-12-14T22:49:40.999Z,94.80
2017-12-14T22:52:08.532Z,94.80
2017-12-14T22:54:36.783Z,95.40
2017-12-14T22:57:04.262Z,95.40
2017-12-14T22:59:32.557Z,95.30
2017-12-14T23:02:00.814Z,95.30
2017-12-14T23:04:29.131Z,95.60
2017-12-14T23:06:56.621Z,95.60
2017-12-14T23:09:24.123Z,95.30
2017-12-14T23:11:52.374Z,95.00
2017-12-14T23:14:19.854Z,95.00
2017-12-14T23:16:48.122Z,95.30
2017-12-14T23:19:16.379Z,95.40
2017-12-14T23:21:43.890Z,95.30
2017-12-14T23:24:11.378Z,95.30
2017-12-14T23:26:38.884Z,95.10
2017-12-14T23:29:07.145Z,95.60
2017-12-14T23:31:34.631Z,95.60
2017-12-14T23:34:02.126Z,95.70
2017-12-14T23:36:29.606Z,95.60
2017-12-14T23:38:57.106Z,95.80
2017-12-14T23:41:24.591Z,95.80
2017-12-14T23:43:52.098Z,95.70
2017-12-14T23:46:20.353Z,96.00
2017-12-14T23:48:47.842Z,95.90
2017-12-14T23:51:16.126Z,96.10
2017-12-14T23:53:44.370Z,96.10
2017-12-14T23:56:11.870Z,96.10
2017-12-14T23:58:39.364Z,96.30
